createdAt,value
2019-04-03T00:00:37.073Z,8.76
2019-04-03T00:03:06.324Z,8.67
2019-04-03T00:05:35.957Z,8.68
2019-04-03T00:08:06.405Z,8.65
2019-04-03T00:10:38.091Z,8.62
2019-04-03T00:13:07.253Z,8.56
2019-04-03T00:15:36.533Z,8.58
2019-04-03T00:18:05.831Z,8.61
2019-04-03T00:20:35.338Z,8.63
2019-04-03T00:23:04.597Z,8.57
2019-04-03T00:25:33.970Z,8.53
2019-04-03T00:28:06.066Z,8.58
2019-04-03T00:30:35.304Z,8.64
2019-04-03T00:33:07.635Z,8.73
2019-04-03T00:35:36.918Z,8.70
2019-04-03T00:38:07.686Z,8.70
2019-04-03T00:40:37.094Z,8.65
2019-04-03T00:43:06.430Z,8.66
2019-04-03T00:45:36.120Z,8.61
2019-04-03T00:48:05.491Z,8.59
2019-04-03T00:50:35.005Z,8.54
2019-04-03T00:53:04.828Z,8.53
2019-04-03T00:55:34.160Z,8.50
2019-04-03T00:58:22.591Z,8.49
2019-04-03T01:00:51.891Z,8.53
2019-04-03T01:03:23.070Z,8.53
2019-04-03T01:05:52.384Z,8.48
2019-04-03T01:08:22.059Z,8.44
2019-04-03T03:11:47.303Z,7.99
2019-04-03T03:14:16.702Z,8.08
2019-04-03T03:16:49.288Z,8.07
2019-04-03T03:19:17.662Z,8.17
2019-04-03T03:21:47.381Z,8.29
2019-04-03T03:24:17.635Z,8.26
2019-04-03T03:26:48.100Z,8.26
2019-04-03T03:29:23.741Z,8.33
2019-04-03T03:32:15.748Z,8.44
2019-04-03T03:34:45.104Z,8.39
2019-04-03T03:36:58.725Z,8.39
2019-04-03T03:39:25.016Z,8.37
2019-04-03T03:41:57.505Z,8.33
2019-04-03T03:44:27.054Z,8.25
2019-04-03T03:47:01.449Z,8.26
2019-04-03T03:49:30.284Z,8.31
2019-04-03T03:52:03.317Z,8.29
2019-04-03T03:54:31.697Z,8.28
2019-04-03T03:57:04.333Z,8.25
2019-04-03T03:59:34.213Z,8.22
2019-04-03T04:02:05.757Z,8.15
2019-04-03T04:04:34.691Z,8.13
2019-04-03T04:07:04.787Z,8.09
2019-04-03T04:09:34.679Z,8.05
2019-04-03T04:12:05.973Z,8.04
2019-04-03T04:14:36.522Z,8.05
2019-04-03T04:17:08.842Z,8.03
2019-04-03T04:19:37.222Z,8.05
2019-04-03T04:22:06.662Z,8.03
2019-04-03T04:24:36.029Z,8.03
2019-04-03T04:27:05.918Z,8.02
2019-04-03T04:29:35.175Z,8.04
2019-04-03T04:32:04.648Z,8.06
2019-04-03T04:34:33.911Z,8.02
2019-04-03T04:37:03.246Z,8.01
2019-04-03T04:39:32.727Z,8.00
2019-04-03T04:42:04.570Z,7.94
2019-04-03T04:44:33.401Z,7.88
2019-04-03T04:47:02.616Z,7.81
2019-04-03T04:49:32.213Z,7.75
2019-04-03T04:52:01.747Z,7.80
2019-04-03T04:54:31.325Z,7.81
2019-04-03T04:57:00.500Z,7.77
2019-04-03T04:59:29.767Z,7.76
2019-04-03T05:01:59.013Z,7.79
2019-04-03T05:04:28.553Z,7.72
2019-04-03T05:06:58.194Z,7.70
2019-04-03T05:09:28.800Z,7.73
2019-04-03T05:11:58.035Z,7.65
2019-04-03T05:14:27.302Z,7.65
2019-04-03T05:16:56.820Z,7.56
2019-04-03T05:19:26.067Z,7.60
2019-04-03T05:21:55.514Z,7.56
2019-04-03T05:24:24.804Z,7.61
2019-04-03T05:26:54.030Z,7.68
2019-04-03T05:29:23.316Z,7.65
2019-04-03T05:31:52.553Z,7.61
2019-04-03T05:34:21.860Z,7.63
2019-04-03T05:36:51.153Z,7.68
2019-04-03T05:39:22.087Z,7.74
2019-04-03T05:41:51.592Z,7.78
2019-04-03T05:44:23.193Z,7.78
2019-04-03T05:46:52.067Z,7.79
2019-04-03T05:49:21.837Z,7.83
2019-04-03T05:51:51.273Z,7.84
2019-04-03T05:54:20.797Z,7.76
2019-04-03T05:56:51.776Z,7.71
2019-04-03T05:59:21.395Z,7.63
2019-04-03T06:01:51.769Z,7.60
2019-04-03T06:04:20.991Z,7.58
2019-04-03T06:06:50.499Z,7.55
2019-04-03T06:09:22.346Z,7.65
2019-04-03T06:11:52.692Z,7.61
2019-04-03T06:14:23.579Z,7.66
2019-04-03T06:16:55.674Z,7.63
2019-04-03T06:19:24.061Z,7.67
2019-04-03T06:21:53.450Z,7.73
2019-04-03T06:24:24.401Z,7.71
2019-04-03T06:26:53.754Z,7.83
2019-04-03T06:29:23.017Z,7.80
2019-04-03T06:31:52.534Z,7.80
2019-04-03T06:34:21.819Z,7.71
2019-04-03T06:36:51.281Z,7.78
2019-04-03T06:39:22.976Z,7.88
2019-04-03T06:41:54.133Z,7.84
2019-04-03T06:44:23.366Z,7.88
2019-04-03T06:46:54.805Z,7.80
2019-04-03T06:49:23.630Z,7.80
2019-04-03T06:51:53.142Z,7.84
2019-04-03T06:54:22.451Z,7.91
2019-04-03T06:56:52.998Z,7.93
2019-04-03T06:59:22.566Z,8.13
2019-04-03T07:01:52.844Z,8.05
2019-04-03T07:04:23.001Z,8.12
2019-04-03T07:06:55.184Z,7.99
2019-04-03T07:09:33.762Z,8.05
2019-04-03T07:11:57.197Z,8.19
2019-04-03T07:14:26.758Z,8.36
2019-04-03T07:16:56.613Z,8.46
2019-04-03T07:19:25.840Z,8.58
2019-04-03T07:21:55.932Z,8.70
2019-04-03T07:24:25.255Z,8.65
2019-04-03T07:26:54.561Z,8.83
2019-04-03T07:29:25.675Z,8.80
2019-04-03T07:31:55.706Z,8.75
2019-04-03T07:34:25.330Z,8.66
2019-04-03T07:36:54.543Z,8.72
2019-04-03T07:39:23.817Z,8.72
2019-04-03T07:41:54.418Z,8.85
2019-04-03T07:44:24.129Z,8.91
2019-04-03T07:46:55.289Z,8.96
2019-04-03T07:49:25.188Z,8.90
2019-04-03T07:51:54.512Z,9.07
2019-04-03T07:54:26.150Z,9.18
2019-04-03T07:56:57.407Z,9.15
2019-04-03T07:59:26.152Z,8.92
2019-04-03T08:01:55.460Z,8.93
2019-04-03T08:04:25.403Z,9.00
2019-04-03T08:06:55.028Z,8.96
2019-04-03T08:09:24.588Z,9.24
2019-04-03T08:11:53.882Z,9.23
2019-04-03T08:14:23.131Z,9.35
2019-04-03T08:16:52.374Z,9.55
2019-04-03T08:19:23.201Z,9.59
2019-04-03T08:21:53.103Z,9.74
2019-04-03T08:24:22.449Z,9.64
2019-04-03T08:26:52.337Z,9.64
2019-04-03T08:29:22.065Z,9.49
2019-04-03T08:31:51.573Z,9.34
2019-04-03T08:34:21.119Z,9.03
2019-04-03T08:36:50.810Z,8.95
2019-04-03T08:39:22.027Z,8.86
2019-04-03T08:41:51.331Z,8.99
2019-04-03T08:44:20.642Z,9.18
2019-04-03T08:46:49.887Z,9.10
2019-04-03T08:49:19.330Z,8.84
2019-04-03T08:51:48.794Z,8.50
2019-04-03T08:54:18.300Z,8.76
2019-04-03T08:56:48.727Z,9.19
2019-04-03T08:59:18.702Z,9.67
2019-04-03T09:01:48.212Z,10.05
2019-04-03T09:04:17.975Z,9.98
2019-04-03T09:06:47.319Z,9.62
2019-04-03T09:09:16.628Z,9.88
2019-04-03T09:11:45.893Z,9.98
2019-04-03T09:14:15.151Z,9.99
2019-04-03T09:16:44.374Z,9.79
2019-04-03T09:19:16.684Z,9.37
2019-04-03T09:21:50.242Z,9.22
2019-04-03T09:24:16.111Z,9.24
2019-04-03T09:26:45.419Z,9.29
2019-04-03T09:29:14.733Z,9.59
2019-04-03T09:31:44.123Z,10.04
2019-04-03T09:34:13.337Z,9.85
2019-04-03T09:36:42.968Z,10.23
2019-04-03T09:39:14.277Z,10.28
2019-04-03T09:41:43.835Z,10.11
2019-04-03T09:44:13.412Z,10.08
2019-04-03T09:46:44.707Z,10.04
2019-04-03T09:49:13.608Z,10.29
2019-04-03T09:51:42.880Z,10.54
2019-04-03T09:54:12.110Z,10.70
2019-04-03T09:56:57.456Z,10.83
2019-04-03T09:59:15.217Z,10.73
2019-04-03T10:01:43.917Z,10.53
2019-04-03T10:04:13.377Z,10.78
2019-04-03T10:06:43.823Z,10.50
2019-04-03T10:09:13.210Z,10.28
2019-04-03T10:11:42.466Z,9.93
2019-04-03T10:14:11.719Z,9.93
2019-04-03T10:16:41.377Z,9.77
2019-04-03T10:19:10.989Z,9.49
2019-04-03T10:21:41.621Z,9.69
2019-04-03T10:24:11.123Z,9.93
2019-04-03T10:26:40.875Z,10.10
2019-04-03T10:29:10.383Z,10.30
2019-04-03T10:31:39.991Z,10.31
2019-04-03T10:34:09.458Z,10.06
2019-04-03T10:36:40.131Z,10.45
2019-04-03T10:39:12.460Z,10.83
2019-04-03T10:41:41.716Z,10.99
2019-04-03T10:44:11.890Z,10.78
2019-04-03T10:46:41.674Z,10.61
2019-04-03T10:49:11.042Z,10.68
2019-04-03T10:51:41.579Z,10.82
2019-04-03T10:54:11.238Z,11.03
2019-04-03T10:56:40.863Z,11.07
2019-04-03T10:59:13.011Z,11.07
2019-04-03T11:01:41.054Z,10.85
2019-04-03T11:04:10.287Z,10.96
2019-04-03T11:06:39.538Z,10.96
2019-04-03T11:09:10.392Z,10.88
2019-04-03T11:11:42.555Z,10.77
2019-04-03T11:14:10.746Z,10.88
2019-04-03T11:16:40.007Z,10.81
2019-04-03T11:19:09.390Z,10.76
2019-04-03T11:21:38.733Z,10.88
2019-04-03T11:24:08.178Z,10.82
2019-04-03T11:26:37.559Z,10.92
2019-04-03T11:29:09.529Z,10.65
2019-04-03T11:31:41.743Z,10.82
2019-04-03T11:34:09.284Z,10.85
2019-04-03T11:36:38.678Z,10.46
2019-04-03T11:39:14.829Z,10.61
2019-04-03T11:41:40.456Z,10.76
2019-04-03T11:44:09.707Z,10.65
2019-04-03T11:46:39.027Z,10.52
2019-04-03T11:49:08.263Z,10.47
2019-04-03T11:51:37.573Z,10.72
2019-04-03T11:54:08.461Z,10.50
2019-04-03T11:56:38.052Z,10.49
2019-04-03T11:59:07.454Z,10.82
2019-04-03T12:01:36.731Z,10.71
2019-04-03T12:04:06.366Z,10.74
2019-04-03T12:06:35.617Z,10.47
2019-04-03T12:09:08.101Z,10.39
2019-04-03T12:11:39.134Z,10.54
2019-04-03T12:14:08.820Z,10.59
2019-04-03T12:16:38.377Z,10.62
2019-04-03T12:19:08.073Z,10.78
2019-04-03T12:21:37.643Z,10.81
2019-04-03T12:24:07.298Z,10.86
2019-04-03T12:26:36.671Z,10.64
2019-04-03T12:29:07.702Z,10.91
2019-04-03T12:31:36.878Z,11.17
2019-04-03T12:34:06.960Z,11.08
2019-04-03T12:36:36.321Z,11.20
2019-04-03T12:39:13.757Z,11.37
2019-04-03T12:41:43.785Z,11.63
2019-04-03T12:44:13.552Z,11.51
2019-04-03T12:46:42.782Z,11.84
2019-04-03T12:49:12.096Z,11.72
2019-04-03T12:51:41.317Z,11.42
2019-04-03T12:54:12.823Z,11.42
2019-04-03T12:56:41.778Z,11.36
2019-04-03T12:59:11.080Z,11.16
2019-04-03T13:01:40.328Z,11.12
2019-04-03T13:04:10.360Z,11.01
2019-04-03T13:06:41.854Z,11.20
2019-04-03T13:09:12.174Z,11.27
2019-04-03T13:11:41.939Z,11.26
2019-04-03T13:14:23.289Z,11.44
2019-04-03T13:16:42.634Z,11.30
2019-04-03T13:19:14.836Z,11.22
2019-04-03T13:21:43.289Z,11.16
2019-04-03T13:24:14.327Z,11.14
2019-04-03T13:26:44.182Z,11.03
2019-04-03T13:29:13.503Z,10.91
2019-04-03T13:31:44.429Z,10.81
2019-04-03T13:34:14.312Z,10.72
2019-04-03T13:36:43.550Z,10.58
2019-04-03T13:39:12.909Z,10.45
2019-04-03T13:41:43.157Z,10.47
2019-04-03T13:44:12.584Z,10.36
2019-04-03T13:46:42.017Z,10.23
2019-04-03T13:49:11.584Z,10.32
2019-04-03T13:51:40.826Z,10.47
2019-04-03T13:54:10.424Z,10.53
2019-04-03T13:56:42.229Z,10.73
2019-04-03T13:59:11.004Z,10.70
2019-04-03T14:01:41.189Z,10.74
2019-04-03T14:04:11.550Z,10.74
2019-04-03T14:06:40.860Z,10.71
2019-04-03T14:09:10.152Z,10.59
2019-04-03T14:11:39.902Z,10.61
2019-04-03T14:14:09.172Z,10.45
2019-04-03T14:16:38.420Z,10.36
2019-04-03T14:19:07.756Z,10.36
2019-04-03T14:21:37.147Z,10.41
2019-04-03T14:24:08.269Z,10.33
2019-04-03T14:26:37.630Z,10.26
2019-04-03T14:29:08.424Z,10.05
2019-04-03T14:31:38.274Z,9.96
2019-04-03T14:34:08.397Z,9.92
2019-04-03T14:36:38.067Z,9.99
2019-04-03T14:39:09.055Z,9.93
2019-04-03T14:41:39.518Z,9.92
2019-04-03T14:44:09.762Z,9.94
2019-04-03T14:46:39.192Z,9.92
2019-04-03T14:49:10.991Z,9.99
2019-04-03T14:51:42.825Z,9.84
2019-04-03T14:54:13.546Z,9.97
2019-04-03T14:56:43.401Z,9.94
2019-04-03T14:59:14.071Z,9.93
2019-04-03T15:01:44.142Z,10.08
2019-04-03T15:04:13.561Z,10.07
2019-04-03T15:06:45.623Z,9.97
2019-04-03T15:09:14.733Z,10.03
2019-04-03T15:11:44.169Z,9.92
2019-04-03T15:14:13.403Z,10.02
2019-04-03T15:16:42.958Z,10.07
2019-04-03T15:19:13.747Z,10.04
2019-04-03T15:21:43.181Z,10.08
2019-04-03T15:24:13.072Z,10.04
2019-04-03T15:26:42.340Z,9.97
2019-04-03T15:29:11.598Z,10.03
2019-04-03T15:31:41.341Z,10.00
2019-04-03T15:34:10.934Z,10.08
2019-04-03T15:36:40.262Z,10.04
2019-04-03T15:39:16.490Z,10.07
2019-04-03T15:41:44.656Z,9.92
2019-04-03T15:44:14.046Z,10.01
2019-04-03T15:46:43.771Z,10.08
2019-04-03T15:49:13.211Z,9.88
2019-04-03T15:51:43.020Z,9.89
2019-04-03T15:54:12.449Z,9.87
2019-04-03T15:56:44.347Z,9.90
2019-04-03T15:59:12.762Z,9.86
2019-04-03T16:01:42.245Z,9.92
2019-04-03T16:04:11.513Z,9.97
2019-04-03T16:06:40.758Z,9.76
2019-04-03T16:09:11.250Z,9.70
2019-04-03T16:11:40.473Z,9.68
2019-04-03T16:14:09.868Z,9.59
2019-04-03T16:16:39.419Z,9.58
2019-04-03T16:19:11.429Z,9.58
2019-04-03T16:21:39.707Z,9.45
2019-04-03T16:24:12.402Z,9.49
2019-04-03T16:26:41.004Z,9.49
2019-04-03T16:29:10.878Z,9.45
2019-04-03T16:31:40.117Z,9.45
2019-04-03T16:34:12.286Z,9.34
2019-04-03T16:36:40.825Z,9.36
2019-04-03T16:39:10.423Z,9.27
2019-04-03T16:41:40.991Z,9.15
2019-04-03T16:44:10.683Z,9.06
2019-04-03T16:46:41.585Z,8.96
2019-04-03T16:49:11.135Z,8.90
2019-04-03T16:51:41.413Z,8.81
2019-04-03T16:54:12.459Z,8.85
2019-04-03T16:56:41.699Z,8.80
2019-04-03T16:59:10.906Z,8.74
2019-04-03T17:01:40.165Z,8.73
2019-04-03T17:04:10.451Z,8.77
2019-04-03T17:06:39.745Z,8.79
2019-04-03T17:09:09.668Z,8.67
2019-04-03T17:11:39.300Z,8.67
2019-04-03T17:14:09.006Z,8.68
2019-04-03T17:16:38.561Z,8.60
2019-04-03T17:19:08.273Z,8.63
2019-04-03T17:21:39.357Z,8.52
2019-04-03T17:24:08.581Z,8.54
2019-04-03T17:26:47.835Z,8.57
2019-04-03T17:29:09.309Z,8.58
2019-04-03T17:31:38.747Z,8.56
2019-04-03T17:34:08.410Z,8.56
2019-04-03T17:36:38.013Z,8.53
2019-04-03T17:39:08.959Z,8.42
2019-04-03T17:41:38.621Z,8.45
2019-04-03T17:44:07.928Z,8.44
2019-04-03T17:46:39.946Z,8.41
2019-04-03T17:49:08.437Z,8.42
2019-04-03T17:51:37.678Z,8.39
2019-04-03T17:54:07.876Z,8.39
2019-04-03T17:56:38.724Z,8.38
2019-04-03T17:59:08.031Z,8.36
2019-04-03T18:01:37.726Z,8.36
2019-04-03T18:04:07.336Z,8.29
2019-04-03T18:06:36.831Z,8.28
2019-04-03T18:09:08.736Z,8.24
2019-04-03T18:11:38.244Z,8.27
2019-04-03T18:14:07.825Z,8.28
2019-04-03T18:16:37.158Z,8.24
2019-04-03T18:19:06.487Z,8.22
2019-04-03T18:21:35.765Z,8.22
2019-04-03T18:24:05.252Z,8.25
2019-04-03T18:26:34.458Z,8.22
2019-04-03T18:29:06.364Z,8.29
2019-04-03T18:31:34.771Z,8.31
2019-04-03T18:34:04.221Z,8.33
2019-04-03T18:36:33.718Z,8.36
2019-04-03T18:39:04.618Z,8.29
2019-04-03T18:41:33.822Z,8.20
2019-04-03T18:44:03.116Z,8.17
2019-04-03T18:46:34.423Z,8.10
2019-04-03T18:49:03.312Z,8.17
2019-04-03T18:51:32.531Z,8.21
2019-04-03T18:54:01.791Z,8.19
2019-04-03T18:56:32.184Z,8.21
2019-04-03T18:59:01.524Z,8.25
2019-04-03T19:01:32.264Z,8.26
2019-04-03T19:04:01.692Z,8.23
2019-04-03T19:06:31.193Z,8.22
2019-04-03T19:09:09.709Z,8.30
2019-04-03T19:11:34.301Z,8.16
2019-04-03T19:14:03.171Z,8.07
2019-04-03T19:16:43.543Z,8.13
2019-04-03T19:19:08.153Z,8.14
2019-04-03T19:21:35.767Z,8.08
2019-04-03T19:24:05.384Z,8.09
2019-04-03T19:26:34.870Z,8.05
2019-04-03T19:29:05.164Z,7.98
2019-04-03T19:31:35.847Z,8.04
2019-04-03T19:34:05.139Z,8.01
2019-04-03T19:36:34.368Z,7.94
2019-04-03T19:39:06.607Z,7.87
2019-04-03T19:41:36.324Z,7.85
2019-04-03T19:44:05.604Z,7.74
2019-04-03T19:46:34.816Z,7.75
2019-04-03T19:49:04.084Z,7.73
2019-04-03T19:51:33.305Z,7.64
2019-04-03T19:54:02.513Z,7.70
2019-04-03T19:56:31.749Z,7.65
2019-04-03T19:59:01.061Z,7.71
2019-04-03T20:01:30.601Z,7.71
2019-04-03T20:04:00.106Z,7.71
2019-04-03T20:06:29.999Z,7.64
2019-04-03T20:09:00.942Z,7.58
2019-04-03T20:11:30.177Z,7.54
2019-04-03T20:13:59.428Z,7.59
2019-04-03T20:16:28.930Z,7.54
2019-04-03T20:18:58.159Z,7.50
2019-04-03T20:21:27.399Z,7.50
2019-04-03T20:23:56.911Z,7.45
2019-04-03T20:26:26.542Z,7.44
2019-04-03T20:28:57.393Z,7.43
2019-04-03T20:31:26.789Z,7.44
2019-04-03T20:33:56.306Z,7.45
2019-04-03T20:36:25.582Z,7.39
2019-04-03T20:38:55.998Z,7.40
2019-04-03T20:41:25.820Z,7.35
2019-04-03T20:43:55.162Z,7.42
2019-04-03T20:46:24.514Z,7.38
2019-04-03T20:48:54.033Z,7.37
2019-04-03T20:51:23.349Z,7.30
2019-04-03T20:53:52.639Z,7.31
2019-04-03T20:56:21.862Z,7.27
2019-04-03T20:58:56.174Z,7.30
2019-04-03T21:01:22.376Z,7.28
2019-04-03T21:03:51.938Z,7.28
2019-04-03T21:06:21.508Z,7.20
2019-04-03T21:08:50.988Z,7.23
2019-04-03T21:11:20.524Z,7.24
2019-04-03T21:13:49.737Z,7.20
2019-04-03T21:16:19.331Z,7.19
2019-04-03T21:18:51.160Z,7.14
2019-04-03T21:21:19.899Z,7.12
2019-04-03T21:23:49.381Z,7.08
2019-04-03T21:26:18.934Z,7.04
2019-04-03T21:28:48.192Z,7.08
2019-04-03T21:31:17.429Z,7.05
2019-04-03T21:33:46.963Z,7.01
2019-04-03T21:36:16.212Z,6.99
2019-04-03T21:38:45.495Z,7.01
2019-04-03T21:41:14.753Z,6.95
2019-04-03T21:43:44.030Z,6.97
2019-04-03T21:46:13.622Z,6.96
2019-04-03T21:48:44.758Z,6.94
2019-04-03T21:51:14.362Z,6.93
2019-04-03T21:53:43.915Z,6.94
2019-04-03T21:56:13.151Z,6.92
2019-04-03T21:58:42.730Z,6.87
2019-04-03T22:01:24.339Z,6.82
2019-04-03T22:03:53.791Z,6.86
2019-04-03T22:06:23.170Z,6.85
2019-04-03T22:08:52.449Z,6.78
2019-04-03T22:11:22.043Z,6.78
2019-04-03T22:13:51.318Z,6.72
2019-04-03T22:16:20.654Z,6.79
2019-04-03T22:18:49.940Z,6.76
2019-04-03T22:21:19.808Z,6.73
2019-04-03T22:23:49.417Z,6.78
2019-04-03T22:26:18.919Z,6.76
2019-04-03T22:28:48.496Z,6.70
2019-04-03T22:31:17.730Z,6.71
2019-04-03T22:33:47.004Z,6.72
2019-04-03T22:36:16.254Z,6.69
2019-04-03T22:38:45.775Z,6.66
2019-04-03T22:41:15.046Z,6.68
2019-04-03T22:43:46.194Z,6.70
2019-04-03T22:46:15.712Z,6.74
2019-04-03T22:48:45.034Z,6.72
2019-04-03T22:51:14.854Z,6.68
2019-04-03T22:53:44.397Z,6.66
2019-04-03T22:56:16.553Z,6.71
2019-04-03T22:58:44.751Z,6.70
2019-04-03T23:01:13.986Z,6.65
2019-04-03T23:03:43.228Z,6.64
2019-04-03T23:06:12.751Z,6.58
2019-04-03T23:08:42.007Z,6.54
2019-04-03T23:11:11.243Z,6.51
2019-04-03T23:13:40.912Z,6.48
2019-04-03T23:16:11.639Z,6.49
2019-04-03T23:18:41.366Z,6.44
2019-04-03T23:21:10.568Z,6.45
2019-04-03T23:23:39.812Z,6.45
2019-04-03T23:26:09.057Z,6.48
2019-04-03T23:28:38.361Z,6.43
2019-04-03T23:31:07.647Z,6.46
2019-04-03T23:33:37.287Z,6.49
2019-04-03T23:36:06.929Z,6.51
2019-04-03T23:38:36.178Z,6.49
2019-04-03T23:41:06.139Z,6.48
2019-04-03T23:43:35.865Z,6.46
2019-04-03T23:46:05.382Z,6.43
2019-04-03T23:48:34.633Z,6.44
2019-04-03T23:51:03.871Z,6.42
2019-04-03T23:53:33.096Z,6.42
2019-04-03T23:56:02.345Z,6.31
2019-04-03T23:58:31.576Z,6.25
